Main page
METAR-TAF:

METAR-TAF

Airports :

Cognac – Châteaubernard Air Base

Cognac, France

latitude: 45-40N, longitude: 000-19W, elevation: 30 m

Current weather observation

The report was made 38 minutes ago, at 15:00 UTC
Wind 5 kt from variable directions
Temperature 17°C
Humidity 36%
Pressure 1018 hPa
Visibility 10 km or more
no clouds below 1500 m and no cumulonimbus

METAR: LFBG 281500Z AUTO VRB05KT CAVOK 17/02 Q1018

Time: 16:38 (15:38 UTC)

Forecast

The report was made 31 hours and 38 minutes ago, at 08:00 UTC
Forecast valid from 27 at 09 UTC to 28 at 09 UTC
Wind 5 kt from the Northeast
Visibility 10 km or more
no clouds below 1500 m and no cumulonimbus
Becoming
from 27 at 10 UTC to 27 at 12 UTC
Wind 10 kt from the North/Northeast

TAF: LFBG 270800Z 2709/2809 04005KT CAVOK BECMG 2710/2712 03010KT

Weather observations and forecasts of more than 4000 airports (METAR and TAF reports).

The available stations are represented by yellow and red dots on the map.

Hover mouse over dot to see the name of the station.

Then click to see weather observations and forecasts.

To change the map : click on the green buttons with a black cross to zoom in, on the green button with a dash to zoom out, or on the green arrows for adjacent maps.


METAR-TAF: